createdAt,value
2018-07-20T00:01:27.583Z,7.43
2018-07-20T00:03:56.550Z,8.47
2018-07-20T00:06:25.473Z,8.67
2018-07-20T00:08:54.537Z,9.00
2018-07-20T00:11:23.505Z,9.40
2018-07-20T00:13:52.677Z,8.77
2018-07-20T00:16:21.856Z,9.17
2018-07-20T00:18:51.719Z,8.37
2018-07-20T00:21:20.719Z,8.20
2018-07-20T00:23:49.828Z,8.53
2018-07-20T00:26:18.779Z,9.00
2018-07-20T00:28:48.629Z,8.80
2018-07-20T00:31:17.373Z,7.77
2018-07-20T00:33:46.198Z,9.43
2018-07-20T00:36:15.131Z,9.40
2018-07-20T00:38:44.244Z,9.50
2018-07-20T00:41:13.229Z,10.00
2018-07-20T00:43:42.407Z,10.20
2018-07-20T00:46:11.399Z,9.53
2018-07-20T00:48:40.326Z,9.80
2018-07-20T00:51:09.333Z,10.00
2018-07-20T00:53:38.234Z,9.83
2018-07-20T00:56:07.241Z,10.30
2018-07-20T00:58:36.200Z,9.30
2018-07-20T01:01:05.386Z,9.20
2018-07-20T01:03:34.329Z,9.60
2018-07-20T01:06:03.261Z,11.07
2018-07-20T01:08:32.187Z,9.60
2018-07-20T01:11:01.754Z,8.50
2018-07-20T01:13:30.698Z,9.53
2018-07-20T01:15:59.810Z,9.50
2018-07-20T01:18:28.750Z,10.57
2018-07-20T01:20:57.826Z,9.97
2018-07-20T01:23:26.774Z,9.10
2018-07-20T01:25:55.763Z,9.70
2018-07-20T01:28:24.766Z,8.70
2018-07-20T01:30:53.684Z,9.93
2018-07-20T01:33:22.624Z,10.10
2018-07-20T01:35:51.358Z,10.30
2018-07-20T01:38:20.205Z,10.20
2018-07-20T01:40:49.111Z,9.33
2018-07-20T01:43:18.052Z,9.50
2018-07-20T01:45:46.984Z,10.57
2018-07-20T01:48:15.947Z,9.80
2018-07-20T01:50:44.948Z,9.30
2018-07-20T01:53:13.702Z,10.07
2018-07-20T01:55:42.547Z,10.60
2018-07-20T01:58:11.592Z,9.57
2018-07-20T02:00:40.549Z,11.43
2018-07-20T02:03:09.503Z,11.00
2018-07-20T02:05:38.458Z,11.63
2018-07-20T02:08:07.412Z,11.60
2018-07-20T02:10:36.340Z,11.70
2018-07-20T02:13:05.334Z,10.77
2018-07-20T02:15:34.251Z,10.57
2018-07-20T02:18:03.175Z,10.97
2018-07-20T02:20:32.134Z,11.57
2018-07-20T02:23:00.862Z,11.30
2018-07-20T02:25:29.737Z,11.40
2018-07-20T02:27:58.817Z,9.63
2018-07-20T02:30:27.734Z,10.77
2018-07-20T02:32:56.773Z,11.40
2018-07-20T02:35:25.715Z,10.37
2018-07-20T02:37:54.743Z,11.30
2018-07-20T02:40:23.717Z,12.70
2018-07-20T02:42:52.634Z,10.93
2018-07-20T02:45:21.582Z,11.63
2018-07-20T02:47:50.525Z,11.10
2018-07-20T02:50:19.475Z,11.03
2018-07-20T02:52:48.854Z,11.17
2018-07-20T02:55:17.827Z,10.73
2018-07-20T02:57:46.765Z,11.50
2018-07-20T03:00:15.723Z,12.47
2018-07-20T03:02:44.780Z,12.50
2018-07-20T03:05:13.620Z,12.80
2018-07-20T03:07:42.569Z,12.27
2018-07-20T03:10:11.775Z,12.50
2018-07-20T03:12:40.725Z,12.10
2018-07-20T03:15:09.683Z,12.30
2018-07-20T03:17:38.731Z,9.83
2018-07-20T03:20:07.661Z,12.37
2018-07-20T03:22:36.597Z,12.83
2018-07-20T03:25:05.546Z,12.53
2018-07-20T03:27:34.494Z,11.50
2018-07-20T03:30:03.430Z,13.37
2018-07-20T03:32:32.406Z,13.27
2018-07-20T03:35:01.356Z,14.00
2018-07-20T03:37:30.332Z,11.63
2018-07-20T03:39:59.274Z,13.37
2018-07-20T03:42:28.257Z,13.17
2018-07-20T03:44:57.329Z,12.73
2018-07-20T03:47:26.302Z,13.30
2018-07-20T03:49:55.326Z,14.17
2018-07-20T03:52:24.289Z,13.90
2018-07-20T03:54:53.194Z,13.50
2018-07-20T03:57:22.133Z,12.20
2018-07-20T03:59:51.098Z,15.40
2018-07-20T04:02:20.079Z,13.17
2018-07-20T04:04:49.161Z,12.40
2018-07-20T04:07:18.017Z,12.33
2018-07-20T04:09:46.857Z,12.97
2018-07-20T04:12:15.843Z,13.90
2018-07-20T04:14:44.850Z,15.83
2018-07-20T04:17:13.889Z,16.13
2018-07-20T04:19:42.939Z,14.23
2018-07-20T04:22:11.969Z,14.27
2018-07-20T04:24:41.166Z,15.03
2018-07-20T04:27:10.143Z,15.87
2018-07-20T04:29:39.125Z,16.47
2018-07-20T04:32:08.151Z,14.43
2018-07-20T04:34:36.911Z,14.30
2018-07-20T04:37:05.733Z,13.97
2018-07-20T04:39:34.700Z,13.90
2018-07-20T04:42:03.617Z,15.00
2018-07-20T04:44:32.970Z,14.40
2018-07-20T04:47:01.913Z,15.90
2018-07-20T04:49:30.869Z,15.77
2018-07-20T04:52:00.830Z,14.80
2018-07-20T04:54:29.750Z,15.03
2018-07-20T04:56:58.727Z,16.23
2018-07-20T04:59:27.783Z,15.50
2018-07-20T05:01:56.874Z,16.33
2018-07-20T05:04:25.938Z,16.70
2018-07-20T05:06:54.978Z,17.90
2018-07-20T05:09:23.896Z,19.40
2018-07-20T05:11:53.062Z,20.40
2018-07-20T05:14:21.913Z,20.30
2018-07-20T05:16:51.019Z,21.40
2018-07-20T05:19:19.944Z,19.67
2018-07-20T05:21:49.001Z,20.13
2018-07-20T05:24:18.103Z,19.70
2018-07-20T05:26:46.967Z,19.73
2018-07-20T05:29:16.397Z,20.07
2018-07-20T05:31:45.581Z,19.90
2018-07-20T05:34:14.546Z,20.63
2018-07-20T05:36:43.505Z,19.30
2018-07-20T05:39:12.894Z,19.30
2018-07-20T05:41:41.857Z,18.30
2018-07-20T05:44:10.793Z,17.83
2018-07-20T05:46:39.738Z,18.50
2018-07-20T05:49:08.682Z,19.40
2018-07-20T05:51:37.646Z,19.63
2018-07-20T05:54:06.807Z,19.63
2018-07-20T05:56:35.965Z,18.73
2018-07-20T05:59:05.063Z,19.40
2018-07-20T06:01:34.197Z,19.57
2018-07-20T06:04:03.334Z,18.97
2018-07-20T06:06:32.799Z,19.20
2018-07-20T06:09:01.745Z,19.50
2018-07-20T06:11:30.694Z,19.43
2018-07-20T06:13:59.618Z,19.80
2018-07-20T06:16:28.573Z,20.63
2018-07-20T06:18:57.497Z,18.87
2018-07-20T06:21:26.577Z,18.97
2018-07-20T06:23:56.368Z,18.63
2018-07-20T06:26:26.061Z,19.57
2018-07-20T06:28:55.002Z,20.03
2018-07-20T06:31:23.966Z,18.47
2018-07-20T06:33:52.907Z,18.40
2018-07-20T06:36:21.832Z,18.27
2018-07-20T06:38:50.635Z,20.23
2018-07-20T06:41:19.797Z,19.70
2018-07-20T06:43:48.878Z,18.30
2018-07-20T06:46:17.829Z,18.63
2018-07-20T06:48:46.748Z,18.67
2018-07-20T06:51:15.699Z,18.27
2018-07-20T06:53:44.645Z,18.47
2018-07-20T06:56:13.575Z,18.67
2018-07-20T06:58:42.789Z,17.33
2018-07-20T07:01:11.699Z,17.90
2018-07-20T07:03:40.613Z,17.77
2018-07-20T07:06:09.575Z,16.00
2018-07-20T07:08:38.568Z,16.53
2018-07-20T07:11:07.661Z,17.37
2018-07-20T07:13:36.644Z,16.50
2018-07-20T07:16:06.229Z,15.93
2018-07-20T07:18:35.199Z,17.03
2018-07-20T07:21:04.202Z,16.70
2018-07-20T07:23:33.695Z,15.50
2018-07-20T07:26:02.785Z,16.07
2018-07-20T07:28:31.836Z,15.50
2018-07-20T07:31:00.800Z,15.67
2018-07-20T07:33:29.734Z,14.47
2018-07-20T07:35:58.729Z,13.37
2018-07-20T07:38:27.601Z,14.40
2018-07-20T07:40:56.543Z,13.07
2018-07-20T07:43:25.485Z,13.60
2018-07-20T07:45:54.398Z,13.33
2018-07-20T07:48:23.353Z,12.00
2018-07-20T07:50:52.348Z,13.00
2018-07-20T07:53:21.261Z,12.00
2018-07-20T07:55:50.193Z,12.70
2018-07-20T07:58:19.174Z,12.17
2018-07-20T08:00:48.111Z,12.00
2018-07-20T08:03:17.108Z,12.40
2018-07-20T08:05:46.041Z,12.13
2018-07-20T08:08:14.737Z,12.07
2018-07-20T08:10:43.537Z,11.83
2018-07-20T08:13:12.474Z,11.50
2018-07-20T08:15:41.419Z,12.47
2018-07-20T08:18:10.343Z,10.10
2018-07-20T08:20:39.339Z,11.40
2018-07-20T08:23:08.311Z,13.07
2018-07-20T08:25:37.259Z,10.60
2018-07-20T08:28:06.373Z,11.30
2018-07-20T08:30:35.317Z,11.80
2018-07-20T08:33:04.315Z,11.43
2018-07-20T08:35:33.570Z,10.27
2018-07-20T08:38:02.576Z,11.30
2018-07-20T08:40:31.990Z,10.97
2018-07-20T08:43:00.946Z,10.40
2018-07-20T08:45:29.887Z,10.43
2018-07-20T08:47:58.902Z,10.90
2018-07-20T08:50:27.836Z,9.73
2018-07-20T08:52:56.737Z,9.47
2018-07-20T08:55:25.663Z,10.10
2018-07-20T08:57:54.645Z,9.23
2018-07-20T09:00:23.746Z,8.03
2018-07-20T09:02:52.666Z,7.40
2018-07-20T09:05:21.596Z,7.97
2018-07-20T09:07:50.902Z,7.60
2018-07-20T09:10:19.866Z,8.97
2018-07-20T09:12:48.821Z,9.90
2018-07-20T09:15:17.891Z,9.27
2018-07-20T09:17:46.870Z,8.17
2018-07-20T09:20:15.814Z,7.67
2018-07-20T09:22:44.749Z,9.60
2018-07-20T09:25:13.673Z,9.00
2018-07-20T09:27:42.607Z,7.83
2018-07-20T09:30:11.514Z,7.87
2018-07-20T09:32:40.474Z,7.33
2018-07-20T09:35:09.414Z,8.47
2018-07-20T09:37:38.421Z,7.23
2018-07-20T09:40:07.377Z,8.20
2018-07-20T09:42:36.346Z,9.00
2018-07-20T09:45:05.920Z,7.33
2018-07-20T09:47:34.884Z,7.43
2018-07-20T09:50:04.302Z,7.43
2018-07-20T09:52:33.233Z,6.70
2018-07-20T09:55:02.211Z,6.80
2018-07-20T09:57:31.168Z,7.00
2018-07-20T10:00:00.064Z,6.03
2018-07-20T10:02:28.846Z,7.00
2018-07-20T10:04:57.771Z,6.93
2018-07-20T10:07:26.684Z,6.30
2018-07-20T10:09:55.631Z,6.67
2018-07-20T10:12:24.555Z,6.50
2018-07-20T10:14:53.630Z,5.20
2018-07-20T10:17:22.545Z,5.47
2018-07-20T10:19:51.483Z,6.10
2018-07-20T10:22:20.461Z,6.20
2018-07-20T10:24:49.442Z,5.70
2018-07-20T10:27:18.416Z,6.13
2018-07-20T10:29:47.406Z,5.73
2018-07-20T10:32:16.366Z,6.20
2018-07-20T10:34:45.576Z,6.73
2018-07-20T10:37:14.675Z,6.37
2018-07-20T10:39:43.600Z,6.67
2018-07-20T10:42:12.528Z,5.67
2018-07-20T10:44:41.539Z,5.60
2018-07-20T10:47:10.572Z,6.70
2018-07-20T10:49:39.489Z,5.93
2018-07-20T10:52:08.521Z,5.57
2018-07-20T10:54:37.566Z,4.90
2018-07-20T10:57:06.495Z,5.60
2018-07-20T10:59:35.449Z,5.80
2018-07-20T11:02:04.639Z,5.30
2018-07-20T11:04:33.570Z,5.90
2018-07-20T11:07:02.498Z,6.67
2018-07-20T11:09:31.473Z,5.40
2018-07-20T11:12:00.453Z,5.40
2018-07-20T11:14:29.394Z,6.90
2018-07-20T11:16:58.307Z,5.57
2018-07-20T11:19:27.217Z,6.37
2018-07-20T11:21:56.154Z,5.20
2018-07-20T11:24:25.077Z,6.70
2018-07-20T11:26:53.983Z,5.47
2018-07-20T11:29:23.249Z,6.40
2018-07-20T11:31:52.183Z,6.67
2018-07-20T11:34:21.102Z,5.47
2018-07-20T11:36:50.073Z,4.53
2018-07-20T11:39:19.027Z,5.50
2018-07-20T11:41:48.040Z,4.60
2018-07-20T11:44:16.947Z,4.50
2018-07-20T11:46:45.902Z,5.57
2018-07-20T11:49:14.844Z,5.00
2018-07-20T11:51:43.901Z,4.60
2018-07-20T11:54:12.802Z,5.17
2018-07-20T11:56:41.757Z,5.50
2018-07-20T11:59:10.681Z,4.70
2018-07-20T12:01:39.561Z,4.20
2018-07-20T12:04:08.334Z,3.80
2018-07-20T12:06:37.271Z,4.90
2018-07-20T12:09:09.734Z,4.47
2018-07-20T12:11:38.646Z,4.43
2018-07-20T12:14:07.599Z,4.27
2018-07-20T12:16:36.877Z,4.80
2018-07-20T12:19:05.823Z,4.13
2018-07-20T12:21:34.790Z,5.00
2018-07-20T12:24:03.716Z,4.90
2018-07-20T12:26:32.711Z,5.13
2018-07-20T12:29:01.627Z,4.73
2018-07-20T12:31:30.702Z,4.80
2018-07-20T12:33:59.624Z,4.63
2018-07-20T12:36:28.815Z,4.60
2018-07-20T12:38:57.877Z,4.77
2018-07-20T12:41:26.913Z,3.80
2018-07-20T12:43:56.038Z,4.67
2018-07-20T12:46:24.968Z,4.47
2018-07-20T12:48:54.001Z,4.80
2018-07-20T12:51:23.081Z,5.00
2018-07-20T12:53:53.366Z,4.10
2018-07-20T12:56:22.395Z,4.63
2018-07-20T12:58:51.360Z,5.40
2018-07-20T13:01:20.260Z,4.80
2018-07-20T13:03:50.177Z,4.80
2018-07-20T13:06:19.128Z,5.00
2018-07-20T13:08:48.044Z,4.80
2018-07-20T13:11:17.290Z,4.90
2018-07-20T13:13:46.220Z,4.80
2018-07-20T13:16:15.197Z,4.83
2018-07-20T13:18:45.497Z,6.07
2018-07-20T13:21:14.541Z,5.53
2018-07-20T13:23:43.601Z,5.37
2018-07-20T13:26:12.515Z,5.23
2018-07-20T13:28:42.024Z,5.40
2018-07-20T13:31:10.931Z,4.60
2018-07-20T13:33:39.868Z,4.60
2018-07-20T13:36:08.807Z,5.10
2018-07-20T13:38:37.807Z,5.27
2018-07-20T13:41:06.782Z,6.37
2018-07-20T13:43:35.773Z,6.40
2018-07-20T13:46:04.686Z,5.57
2018-07-20T13:48:33.625Z,5.40
2018-07-20T13:51:02.571Z,4.50
2018-07-20T13:53:31.521Z,4.50
2018-07-20T13:56:00.465Z,5.70
2018-07-20T13:58:29.468Z,5.63
2018-07-20T14:00:58.448Z,4.90
2018-07-20T14:03:27.377Z,5.70
2018-07-20T14:05:56.298Z,6.30
2018-07-20T14:08:25.231Z,7.20
2018-07-20T14:10:55.132Z,5.77
2018-07-20T14:13:24.074Z,6.00
2018-07-20T14:15:53.267Z,6.70
2018-07-20T14:18:22.232Z,6.17
2018-07-20T14:20:51.303Z,6.77
2018-07-20T14:23:20.298Z,6.30
2018-07-20T14:25:49.289Z,6.10
2018-07-20T14:28:18.307Z,5.70
2018-07-20T14:30:47.235Z,7.30
2018-07-20T14:33:16.268Z,6.80
2018-07-20T14:35:45.493Z,6.20
2018-07-20T14:38:14.645Z,7.33
2018-07-20T14:40:43.693Z,6.93
2018-07-20T14:43:13.352Z,7.10
2018-07-20T14:45:43.723Z,6.80
2018-07-20T14:48:12.989Z,6.77
2018-07-20T14:50:41.963Z,6.30
2018-07-20T14:53:10.930Z,7.20
2018-07-20T14:55:39.999Z,6.60
2018-07-20T14:58:08.953Z,7.10
2018-07-20T15:00:38.082Z,6.80
2018-07-20T15:03:06.994Z,6.80
2018-07-20T15:05:35.926Z,6.47
2018-07-20T15:08:05.216Z,7.10
2018-07-20T15:10:35.046Z,7.00
2018-07-20T15:13:04.291Z,7.70
2018-07-20T15:15:33.239Z,6.90
2018-07-20T15:18:02.187Z,6.37
2018-07-20T15:20:31.225Z,6.97
2018-07-20T15:23:00.251Z,7.20
2018-07-20T15:25:29.226Z,7.53
2018-07-20T15:27:58.241Z,7.23
2018-07-20T15:30:27.186Z,6.97
2018-07-20T15:32:56.159Z,7.00
2018-07-20T15:35:24.929Z,7.33
2018-07-20T15:37:53.736Z,7.27
2018-07-20T15:40:22.656Z,7.17
2018-07-20T15:42:51.629Z,8.03
2018-07-20T15:45:20.755Z,6.50
2018-07-20T15:47:49.854Z,6.87
2018-07-20T15:50:18.862Z,7.13
2018-07-20T15:55:16.936Z,7.40
2018-07-20T15:57:45.872Z,6.30
2018-07-20T16:00:15.061Z,7.30
2018-07-20T16:02:45.446Z,6.93
2018-07-20T16:05:14.467Z,7.10
2018-07-20T16:07:43.518Z,7.50
2018-07-20T16:10:12.462Z,6.77
2018-07-20T16:12:41.562Z,6.87
2018-07-20T16:15:10.605Z,6.70
2018-07-20T16:17:39.758Z,6.60
2018-07-20T16:20:08.719Z,7.23
2018-07-20T16:22:37.788Z,7.30
2018-07-20T16:25:06.765Z,7.27
2018-07-20T16:27:35.843Z,7.40
2018-07-20T16:30:05.232Z,7.63
2018-07-20T16:32:34.127Z,6.50
2018-07-20T16:35:03.054Z,8.70
2018-07-20T16:37:31.994Z,6.73
2018-07-20T16:40:00.933Z,7.00
2018-07-20T16:42:29.672Z,7.90
2018-07-20T16:44:58.692Z,6.27
2018-07-20T16:47:27.663Z,6.60
2018-07-20T16:49:56.608Z,6.50
2018-07-20T16:52:25.581Z,7.63
2018-07-20T16:54:54.522Z,7.67
2018-07-20T16:57:23.557Z,7.67
2018-07-20T16:59:52.776Z,6.97
2018-07-20T17:02:21.690Z,6.77
2018-07-20T17:04:50.588Z,6.40
2018-07-20T17:07:19.597Z,6.60
2018-07-20T17:09:48.504Z,7.57
2018-07-20T17:12:17.419Z,6.70
2018-07-20T17:14:46.356Z,7.40
2018-07-20T17:17:15.572Z,11.23
2018-07-20T17:19:51.431Z,7.30
2018-07-20T17:22:27.338Z,7.57
2018-07-20T17:24:56.520Z,6.40
2018-07-20T17:27:25.494Z,7.07
2018-07-20T17:29:54.440Z,7.07
2018-07-20T17:32:23.365Z,6.20
2018-07-20T17:34:52.308Z,5.93
2018-07-20T17:37:21.293Z,9.93
2018-07-20T17:39:50.218Z,7.70
2018-07-20T17:42:19.175Z,9.30
2018-07-20T17:44:48.100Z,6.20
2018-07-20T17:47:17.078Z,6.40
2018-07-20T17:49:46.014Z,6.77
2018-07-20T17:52:14.939Z,7.10
2018-07-20T17:57:18.310Z,6.17
2018-07-20T17:59:47.248Z,7.87
2018-07-20T18:02:16.200Z,9.97
2018-07-20T18:04:45.155Z,9.17
2018-07-20T18:07:14.493Z,6.63
2018-07-20T18:09:43.417Z,5.97
2018-07-20T18:12:12.351Z,7.10
2018-07-20T18:14:41.328Z,6.13
2018-07-20T18:17:10.246Z,6.10
2018-07-20T18:19:39.193Z,6.37
2018-07-20T18:22:08.199Z,7.60
2018-07-20T18:24:37.178Z,6.23
2018-07-20T18:27:06.165Z,6.50
2018-07-20T18:29:35.087Z,6.70
2018-07-20T18:32:04.018Z,6.30
2018-07-20T18:34:32.970Z,8.30
2018-07-20T18:37:01.924Z,6.30
2018-07-20T18:39:30.891Z,6.10
2018-07-20T18:41:59.870Z,6.10
2018-07-20T18:44:28.586Z,6.30
2018-07-20T18:46:57.397Z,6.37
2018-07-20T18:49:26.328Z,8.30
2018-07-20T18:51:55.290Z,6.30
2018-07-20T18:54:24.231Z,6.03
2018-07-20T18:56:53.257Z,5.80
2018-07-20T18:59:22.202Z,5.97
2018-07-20T19:01:51.199Z,6.70
2018-07-20T19:04:20.369Z,6.00
2018-07-20T19:06:49.389Z,6.67
2018-07-20T19:09:19.466Z,6.17
2018-07-20T19:11:48.386Z,5.70
2018-07-20T19:14:17.332Z,6.07
2018-07-20T19:16:46.241Z,5.73
2018-07-20T19:19:16.538Z,6.10
2018-07-20T19:21:45.477Z,5.60
2018-07-20T19:24:14.399Z,6.70
2018-07-20T19:26:43.345Z,5.77
2018-07-20T19:29:12.273Z,5.37
2018-07-20T19:31:41.351Z,5.93
2018-07-20T19:34:10.338Z,6.17
2018-07-20T19:36:39.243Z,5.27
2018-07-20T19:39:09.568Z,5.70
2018-07-20T19:41:38.708Z,5.20
2018-07-20T19:44:09.003Z,5.70
2018-07-20T19:46:38.038Z,5.60
2018-07-20T19:49:06.839Z,5.70
2018-07-20T19:51:35.690Z,5.70
2018-07-20T19:54:04.843Z,4.90
2018-07-20T19:56:33.763Z,5.00
2018-07-20T19:59:02.805Z,5.40
2018-07-20T20:01:32.583Z,5.93
2018-07-20T20:04:01.479Z,6.20
2018-07-20T20:06:30.179Z,5.17
2018-07-20T20:08:58.995Z,5.40
2018-07-20T20:11:28.205Z,5.37
2018-07-20T20:13:57.097Z,5.13
2018-07-20T20:16:26.024Z,5.37
2018-07-20T20:18:54.744Z,5.10
2018-07-20T20:21:23.368Z,6.30
2018-07-20T20:23:52.156Z,5.63
2018-07-20T20:26:21.204Z,6.00
2018-07-20T20:28:50.141Z,6.87
2018-07-20T20:31:19.050Z,5.70
2018-07-20T20:33:47.998Z,5.80
2018-07-20T20:36:16.871Z,6.03
2018-07-20T20:38:46.139Z,6.50
2018-07-20T20:41:14.861Z,5.57
2018-07-20T20:43:44.029Z,6.20
2018-07-20T20:46:12.974Z,5.67
2018-07-20T20:48:42.177Z,5.63
2018-07-20T20:51:11.353Z,5.83
2018-07-20T20:53:40.336Z,5.60
2018-07-20T20:56:09.313Z,6.07
2018-07-20T20:58:38.446Z,5.53
2018-07-20T21:01:07.570Z,6.00
2018-07-20T21:03:36.284Z,6.30
2018-07-20T21:06:05.414Z,6.70
2018-07-20T21:08:35.702Z,5.50
2018-07-20T21:11:04.880Z,6.40
2018-07-20T21:13:34.032Z,6.93
2018-07-20T21:16:03.015Z,6.40
2018-07-20T21:18:32.274Z,6.00
2018-07-20T21:21:01.312Z,6.30
2018-07-20T21:23:30.435Z,5.93
2018-07-20T21:25:59.509Z,6.60
2018-07-20T21:28:28.456Z,5.83
2018-07-20T21:30:57.214Z,5.80
2018-07-20T21:33:26.011Z,5.63
2018-07-20T21:35:55.399Z,6.33
2018-07-20T21:38:24.188Z,6.37
2018-07-20T21:40:53.136Z,6.13
2018-07-20T21:43:22.160Z,7.10
2018-07-20T21:45:51.208Z,7.43
2018-07-20T21:48:20.180Z,7.37
2018-07-20T21:50:49.279Z,7.73
2018-07-20T21:53:18.409Z,6.87
2018-07-20T21:55:47.350Z,6.10
2018-07-20T21:58:16.275Z,5.37
2018-07-20T22:00:45.427Z,6.50
2018-07-20T22:03:14.357Z,5.97
2018-07-20T22:05:43.266Z,6.47
2018-07-20T22:08:12.210Z,6.90
2018-07-20T22:10:41.135Z,6.40
2018-07-20T22:13:10.093Z,6.40
2018-07-20T22:15:39.038Z,6.30
2018-07-20T22:18:08.002Z,6.80
2018-07-20T22:20:36.942Z,6.73
2018-07-20T22:23:06.040Z,6.90
2018-07-20T22:25:34.963Z,7.83
2018-07-20T22:28:03.924Z,7.63
2018-07-20T22:30:32.871Z,8.13
2018-07-20T22:33:01.826Z,9.47
2018-07-20T22:35:30.740Z,9.07
2018-07-20T22:37:59.690Z,9.23
2018-07-20T22:40:28.649Z,8.03
2018-07-20T22:42:57.600Z,9.17
2018-07-20T22:45:26.658Z,9.47
2018-07-20T22:47:55.611Z,9.90
2018-07-20T22:50:24.557Z,9.77
2018-07-20T22:52:53.466Z,10.53
2018-07-20T22:55:22.416Z,10.30
2018-07-20T22:57:51.361Z,10.87
2018-07-20T23:00:20.298Z,11.83
2018-07-20T23:02:50.112Z,12.20
2018-07-20T23:05:19.021Z,11.47
2018-07-20T23:07:48.005Z,13.10
2018-07-20T23:10:16.955Z,13.93
2018-07-20T23:12:45.865Z,14.17
2018-07-20T23:15:14.803Z,15.00
2018-07-20T23:17:43.754Z,14.87
2018-07-20T23:20:12.690Z,13.07
2018-07-20T23:22:41.642Z,15.10
2018-07-20T23:25:10.553Z,16.90
2018-07-20T23:27:39.551Z,14.90
2018-07-20T23:30:08.558Z,16.37
2018-07-20T23:32:37.507Z,16.37
2018-07-20T23:35:06.546Z,16.77
2018-07-20T23:37:35.468Z,13.97
2018-07-20T23:40:05.698Z,14.57
2018-07-20T23:42:34.624Z,14.40
2018-07-20T23:45:03.638Z,13.07
2018-07-20T23:47:32.605Z,14.77
2018-07-20T23:50:01.542Z,14.23
2018-07-20T23:52:30.490Z,15.13
2018-07-20T23:54:59.436Z,13.80
2018-07-20T23:57:28.421Z,16.00
2018-07-20T23:59:57.367Z,15.00
